Time;durP1;ratioP1;P1;durP2;ratioP2;P2;SDS_P1;SDS_P2;PMS_P1;PMS_P2;Temp;Humidity;BMP_temperature;BMP_pressure;BME280_temperature;BME280_humidity;BME280_pressure;Samples;Min_cycle;Max_cycle;Signal;HPM_P1;HPM_P2
2023/04/28 00:01:15;;;;;;;6.47;3.70;;;;;;;-141.97;42.22;47622.88;5054577;28;20164;-80
2023/04/28 00:03:41;;;;;;;5.00;3.50;;;;;;;-141.97;41.64;47667.06;5054579;28;20154;-80
2023/04/28 00:06:07;;;;;;;8.70;3.73;;;;;;;-141.97;41.52;47692.06;5036786;28;20170;-80
2023/04/28 00:08:32;;;;;;;7.27;3.73;;;;;;;-141.97;41.26;47676.69;5053665;28;20203;-80
2023/04/28 00:10:58;;;;;;;9.43;4.83;;;;;;;-141.97;41.21;47632.47;5054067;28;20431;-80
2023/04/28 00:13:23;;;;;;;7.23;3.57;;;;;;;-141.97;40.84;47703.59;5054122;28;20195;-80
2023/04/28 00:15:52;;;;;;;6.70;3.90;;;;;;;-141.97;41.14;47672.84;5053851;28;20181;-80
2023/04/28 00:18:19;;;;;;;6.03;4.03;;;;;;;-141.97;41.59;47638.25;5052105;28;20262;-81
2023/04/28 00:20:44;;;;;;;5.00;4.03;;;;;;;-141.97;41.73;47640.16;5054138;28;20248;-80
2023/04/28 00:23:09;;;;;;;6.63;4.37;;;;;;;-141.97;41.13;47626.72;5054930;28;20719;-80
2023/04/28 00:25:35;;;;;;;7.97;4.40;;;;;;;-141.97;41.40;47649.78;5054678;28;20276;-80
2023/04/28 00:28:01;;;;;;;6.00;4.03;;;;;;;-141.97;41.67;47603.66;5053222;28;20241;-80
2023/04/28 00:30:29;;;;;;;7.50;4.50;;;;;;;-141.97;41.91;47647.84;5053750;28;20558;-81
2023/04/28 00:32:55;;;;;;;5.27;4.00;;;;;;;-141.97;42.23;47642.09;5036106;28;20177;-80
2023/04/28 00:35:21;;;;;;;7.63;4.20;;;;;;;-141.97;42.56;47694.00;5054737;28;20158;-80
2023/04/28 00:37:46;;;;;;;6.43;4.40;;;;;;;-141.97;43.20;47620.94;5053888;28;20610;-80
2023/04/28 00:40:12;;;;;;;7.93;4.70;;;;;;;-141.97;43.31;47557.53;5052978;28;20172;-80
2023/04/28 00:42:37;;;;;;;7.23;4.43;;;;;;;-141.97;43.25;47576.75;5054070;28;20157;-80
2023/04/28 00:45:05;;;;;;;9.10;4.60;;;;;;;-141.97;43.33;47644.00;5038088;28;20193;-80
2023/04/28 00:47:35;;;;;;;8.00;4.07;;;;;;;-141.97;44.03;47634.41;5036804;28;20218;-80
2023/04/28 00:50:02;;;;;;;7.30;4.00;;;;;;;-141.97;44.19;47651.69;5054180;28;20203;-81
2023/04/28 00:52:28;;;;;;;8.07;5.20;;;;;;;-141.97;44.71;47595.97;5035308;28;20168;-81
2023/04/28 00:54:55;;;;;;;8.70;5.10;;;;;;;-141.97;44.93;47595.97;5054066;28;20157;-81
2023/04/28 00:57:21;;;;;;;9.90;5.80;;;;;;;-141.97;44.63;47653.63;5053281;28;20255;-81
2023/04/28 00:59:47;;;;;;;8.60;4.97;;;;;;;-141.97;45.25;47628.63;5053330;28;20547;-81
2023/04/28 01:02:16;;;;;;;6.13;4.77;;;;;;;-141.97;45.63;47628.63;5053017;28;20161;-79
2023/04/28 01:04:43;;;;;;;8.67;5.63;;;;;;;-141.97;46.24;47607.50;5035593;28;20604;-79
2023/04/28 01:07:09;;;;;;;7.27;5.77;;;;;;;-141.97;46.35;47595.97;5052907;28;20227;-79
2023/04/28 01:09:34;;;;;;;8.77;6.33;;;;;;;-141.97;46.36;47649.78;5052754;28;20162;-80
2023/04/28 01:11:59;;;;;;;11.77;7.10;;;;;;;-141.97;47.03;47559.44;5053073;28;20224;-80
2023/04/28 01:14:25;;;;;;;9.40;6.30;;;;;;;-141.97;47.28;47644.00;5052484;28;20212;-80
2023/04/28 01:16:50;;;;;;;11.30;6.40;;;;;;;-141.97;48.47;47644.00;5052436;28;20690;-80
2023/04/28 01:19:22;;;;;;;9.07;5.97;;;;;;;-141.97;48.45;47613.25;5053075;28;20203;-80
2023/04/28 01:21:51;;;;;;;10.20;6.10;;;;;;;-141.97;48.61;47642.09;5053125;28;20214;-79
2023/04/28 01:24:19;;;;;;;8.03;6.27;;;;;;;-141.97;49.19;47611.34;5052104;28;20196;-80
2023/04/28 01:26:45;;;;;;;11.37;6.30;;;;;;;-141.97;48.94;47607.50;5052332;28;20572;-80
2023/04/28 01:29:11;;;;;;;10.40;6.47;;;;;;;-141.97;49.16;47611.34;5052129;28;20239;-80
2023/04/28 01:31:36;;;;;;;10.07;6.60;;;;;;;-141.97;49.73;47649.78;5052184;28;20523;-80
2023/04/28 01:34:02;;;;;;;8.53;6.17;;;;;;;-141.97;50.41;47622.88;5052047;28;20191;-81
2023/04/28 01:36:30;;;;;;;8.87;6.47;;;;;;;-141.97;51.07;47653.63;5052172;28;20216;-81
2023/04/28 01:38:56;;;;;;;13.87;7.13;;;;;;;-141.97;51.36;47626.72;5053410;28;20169;-80
2023/04/28 01:41:21;;;;;;;12.03;7.00;;;;;;;-141.97;51.76;47572.91;5041666;28;20230;-80
2023/04/28 01:43:47;;;;;;;10.30;6.80;;;;;;;-141.97;51.91;47619.03;5075752;28;20154;-80
2023/04/28 01:46:12;;;;;;;10.80;6.83;;;;;;;-141.97;51.81;47649.78;5059217;28;20188;-81
2023/04/28 01:48:37;;;;;;;10.03;6.93;;;;;;;-141.97;52.05;47651.69;5052106;28;20612;-80
2023/04/28 01:51:03;;;;;;;10.87;7.07;;;;;;;-141.97;52.05;47645.94;5034352;28;20161;-80
2023/04/28 01:53:29;;;;;;;9.50;7.00;;;;;;;-141.97;52.45;47619.03;5033840;28;20188;-80
2023/04/28 01:55:55;;;;;;;11.70;6.67;;;;;;;-141.97;52.54;47734.34;5051375;28;20253;-80
2023/04/28 01:58:20;;;;;;;9.53;6.43;;;;;;;-141.97;51.63;47622.88;5051654;28;20161;-81
2023/04/28 02:00:46;;;;;;;8.90;5.93;;;;;;;-141.97;52.08;47638.25;5051473;28;20170;-81
2023/04/28 02:03:12;;;;;;;10.43;6.30;;;;;;;-141.97;51.64;47661.31;5051299;28;20161;-81
2023/04/28 02:05:38;;;;;;;11.83;6.63;;;;;;;-141.97;51.27;47644.00;5051368;28;20579;-80
2023/04/28 02:08:03;;;;;;;9.97;6.30;;;;;;;-141.97;51.62;47592.13;5034134;28;20262;-81
2023/04/28 02:10:31;;;;;;;9.67;6.13;;;;;;;-141.97;51.30;47709.38;5033098;28;20196;-81
2023/04/28 02:12:59;;;;;;;9.80;6.10;;;;;;;-141.97;52.19;47636.31;5050774;28;20243;-80
2023/04/28 02:15:24;;;;;;;13.43;5.43;;;;;;;-141.97;51.84;47624.78;5051530;28;20567;-81
2023/04/28 02:17:50;;;;;;;9.87;5.63;;;;;;;-141.97;51.47;47645.94;5034973;28;20162;-80
2023/04/28 02:20:16;;;;;;;7.50;5.30;;;;;;;-141.97;51.15;47467.19;5044815;28;20641;-80
2023/04/28 02:22:42;;;;;;;9.70;5.87;;;;;;;-141.97;50.50;47684.38;5031286;28;20275;-80
2023/04/28 02:25:09;;;;;;;8.77;5.30;;;;;;;-141.97;50.76;47651.69;5040881;28;20230;-81
2023/04/28 02:27:37;;;;;;;9.33;5.73;;;;;;;-141.97;49.62;47661.31;5025583;28;20596;-81
2023/04/28 02:30:05;;;;;;;11.23;5.73;;;;;;;-141.97;49.21;47551.75;5013867;28;20162;-81
2023/04/28 02:32:30;;;;;;;8.70;5.93;;;;;;;-141.97;49.15;47718.97;5031542;28;20192;-80
2023/04/28 02:34:56;;;;;;;8.67;5.83;;;;;;;-141.97;49.09;47730.50;5031767;28;20548;-80
2023/04/28 02:37:22;;;;;;;13.10;6.27;;;;;;;-141.97;49.26;47446.03;5013491;28;20328;-81
2023/04/28 02:39:48;;;;;;;8.77;5.53;;;;;;;-141.97;49.73;47634.41;5029949;28;20630;-80
2023/04/28 02:42:17;;;;;;;9.33;5.70;;;;;;;-141.97;49.53;47530.59;5031475;28;20233;-80
2023/04/28 02:44:56;;;;;;;8.43;5.87;;;;;;;-141.97;49.15;47724.75;5015196;28;20204;-80
2023/04/28 02:47:21;;;;;;;9.87;5.73;;;;;;;-141.97;49.41;47480.63;5037399;28;20244;-80
2023/04/28 02:49:47;;;;;;;11.47;5.33;;;;;;;-141.97;49.07;47657.47;5021856;28;20662;-81
2023/04/28 02:52:13;;;;;;;8.17;5.30;;;;;;;-141.97;49.13;47615.19;5022018;28;20598;-81
2023/04/28 02:54:38;;;;;;;9.63;5.23;;;;;;;-141.97;49.24;47465.25;5023714;28;20170;-80
2023/04/28 02:57:04;;;;;;;9.17;4.70;;;;;;;-141.97;49.13;47463.34;5047400;28;20222;-80
2023/04/28 02:59:29;;;;;;;7.27;4.83;;;;;;;-141.97;49.03;47478.72;5060071;28;20170;-81
2023/04/28 03:01:55;;;;;;;9.23;5.17;;;;;;;-141.97;49.25;47432.59;5039352;28;20244;-81
2023/04/28 03:04:21;;;;;;;4.43;2.90;;;;;;;-141.97;49.34;47634.41;5039624;28;20273;-80
2023/04/28 03:06:47;;;;;;;9.50;5.27;;;;;;;-141.97;49.54;47430.66;5038831;28;20158;-80
2023/04/28 03:09:14;;;;;;;6.47;4.03;;;;;;;-141.97;49.40;47609.41;5037684;28;20260;-80
2023/04/28 03:11:40;;;;;;;7.53;4.93;;;;;;;-141.97;49.53;47686.31;5037326;28;20170;-80
2023/04/28 03:14:05;;;;;;;11.37;5.40;;;;;;;-141.97;48.92;47692.06;5039014;28;20396;-80
2023/04/28 03:16:31;;;;;;;7.93;4.40;;;;;;;-141.97;48.63;47546.00;5039235;28;20241;-80
2023/04/28 03:18:57;;;;;;;6.90;4.50;;;;;;;-141.97;48.40;47461.41;5021689;28;20170;-80
2023/04/28 03:21:22;;;;;;;7.70;3.83;;;;;;;-141.97;48.26;47451.81;5040076;28;20173;-80
2023/04/28 03:23:47;;;;;;;9.43;4.80;;;;;;;-141.97;48.12;47447.97;5045688;28;20166;-80
2023/04/28 03:26:13;;;;;;;9.80;5.10;;;;;;;-141.97;47.91;47644.00;5055837;28;20261;-81
2023/04/28 03:28:40;;;;;;;8.37;5.10;;;;;;;-141.97;47.40;47615.19;5036904;28;20174;-80
2023/04/28 03:31:06;;;;;;;9.07;4.77;;;;;;;-141.97;47.28;47511.38;5054308;28;20162;-80
2023/04/28 03:33:31;;;;;;;9.20;5.60;;;;;;;-141.97;47.11;47701.69;5058367;28;20593;-81
2023/04/28 03:35:56;;;;;;;8.87;5.33;;;;;;;-141.97;47.19;47743.97;5057954;28;20482;-81
2023/04/28 03:38:22;;;;;;;14.73;7.47;;;;;;;-141.97;47.60;47511.38;5058658;28;20286;-81
2023/04/28 03:40:47;;;;;;;22.10;9.93;;;;;;;-141.97;48.10;47499.84;5059075;28;20219;-81
2023/04/28 03:43:13;;;;;;;22.03;11.10;;;;;;;-141.97;48.27;47538.28;5059438;28;20248;-80
2023/04/28 03:45:39;;;;;;;10.97;7.47;;;;;;;-141.97;48.18;47622.88;5058648;28;20832;-80
2023/04/28 03:48:05;;;;;;;10.67;6.33;;;;;;;-141.97;48.23;47692.06;5057661;28;20304;-80
2023/04/28 03:50:31;;;;;;;10.50;6.63;;;;;;;-141.97;48.10;47676.69;5057510;28;20895;-81
2023/04/28 03:52:57;;;;;;;8.37;5.73;;;;;;;-141.97;48.29;47509.47;5058971;28;20403;-80
2023/04/28 03:55:22;;;;;;;9.67;5.53;;;;;;;-141.97;48.05;47522.91;5059352;28;20161;-81
2023/04/28 03:57:48;;;;;;;12.30;5.63;;;;;;;-141.97;47.75;47484.47;5057871;28;20220;-80
2023/04/28 04:00:13;;;;;;;20.13;9.70;;;;;;;-141.97;48.01;47707.44;5057928;28;20252;-78
2023/04/28 04:02:39;;;;;;;8.77;5.40;;;;;;;-141.97;47.68;47557.53;5054699;28;20315;-80
2023/04/28 04:05:06;;;;;;;10.80;6.43;;;;;;;-141.97;47.89;47651.69;5055339;28;20644;-80
2023/04/28 04:07:31;;;;;;;12.63;6.10;;;;;;;-141.97;47.75;47665.16;5038911;28;20638;-81
2023/04/28 04:10:05;;;;;;;11.00;5.00;;;;;;;-141.97;47.80;47538.28;5060585;28;20411;-80
2023/04/28 04:12:30;;;;;;;9.50;5.73;;;;;;;-141.97;47.20;47722.81;5074347;28;20192;-80
2023/04/28 04:14:56;;;;;;;12.37;5.77;;;;;;;-141.97;47.64;47661.31;5068199;28;20173;-80
2023/04/28 04:17:21;;;;;;;10.60;4.60;;;;;;;-141.97;47.31;47513.31;5053935;28;20169;-81
2023/04/28 04:19:47;;;;;;;10.37;5.50;;;;;;;-141.97;47.31;47695.91;5054496;28;20177;-80
2023/04/28 04:22:12;;;;;;;9.87;5.27;;;;;;;-141.97;47.05;47636.31;5055590;28;20175;-80
2023/04/28 04:24:38;;;;;;;11.40;5.63;;;;;;;-141.97;47.09;47555.59;5054853;28;20197;-81
2023/04/28 04:27:03;;;;;;;10.37;5.30;;;;;;;-141.97;46.48;47684.38;5036881;28;20177;-81
2023/04/28 04:29:30;;;;;;;8.43;5.27;;;;;;;-141.97;46.14;47471.03;5054096;28;20320;-81
2023/04/28 04:31:56;;;;;;;7.13;4.23;;;;;;;-141.97;45.69;47557.53;5054616;28;20166;-80
2023/04/28 04:34:21;;;;;;;10.00;4.50;;;;;;;-141.97;45.66;47718.97;5053246;28;20165;-81
2023/04/28 04:36:47;;;;;;;8.63;5.40;;;;;;;-141.97;45.37;47515.22;5052983;28;21003;-82
2023/04/28 04:39:13;;;;;;;7.83;4.27;;;;;;;-141.97;45.17;47580.59;5053954;28;20629;-81
2023/04/28 04:41:38;;;;;;;9.17;5.57;;;;;;;-141.97;45.08;47717.06;5052252;28;20579;-81
2023/04/28 04:44:04;;;;;;;9.13;4.80;;;;;;;-141.97;45.43;47657.47;5053335;28;20181;-81
2023/04/28 04:46:31;;;;;;;12.17;4.83;;;;;;;-141.97;45.05;47538.28;5052902;28;20223;-81
2023/04/28 04:49:01;;;;;;;9.07;4.67;;;;;;;-141.97;44.77;47644.00;5035756;28;20649;-80
2023/04/28 04:51:27;;;;;;;9.53;5.63;;;;;;;-141.97;44.76;47663.22;5052131;28;20180;-80
2023/04/28 04:53:54;;;;;;;8.30;5.47;;;;;;;-141.97;44.80;47688.22;5036024;28;20181;-80
2023/04/28 04:56:19;;;;;;;11.63;7.10;;;;;;;-141.97;45.39;47632.47;5053626;28;20173;-81
2023/04/28 04:58:45;;;;;;;11.20;6.30;;;;;;;-141.97;44.28;47686.31;5053809;28;20567;-81
2023/04/28 05:01:11;;;;;;;9.87;5.40;;;;;;;-141.97;44.52;47678.63;5052890;28;20177;-82
2023/04/28 05:03:36;;;;;;;11.00;4.97;;;;;;;-141.97;44.85;47588.28;5052909;28;20169;-81
2023/04/28 05:06:02;;;;;;;8.50;5.47;;;;;;;-141.97;44.51;47715.13;5052322;28;20185;-82
2023/04/28 05:08:28;;;;;;;7.67;5.27;;;;;;;-141.97;44.33;47695.91;5052678;28;20166;-81
2023/04/28 05:10:54;;;;;;;10.00;5.57;;;;;;;-141.97;44.03;47701.69;5051780;28;20272;-81
2023/04/28 05:13:19;;;;;;;13.83;6.87;;;;;;;-141.97;44.35;47745.88;5052107;28;20638;-81
2023/04/28 05:15:45;;;;;;;10.60;5.50;;;;;;;-141.97;44.17;47494.09;5052733;28;20630;-80
2023/04/28 05:18:12;;;;;;;8.83;4.90;;;;;;;-141.97;43.73;47742.03;5053480;28;20242;-80
2023/04/28 05:20:38;;;;;;;6.80;3.40;;;;;;;-141.97;43.06;47619.03;5034294;28;20165;-80
2023/04/28 05:23:03;;;;;;;9.23;4.27;;;;;;;-141.97;43.63;47649.78;5052191;28;20532;-81
2023/04/28 05:25:29;;;;;;;6.63;3.77;;;;;;;-141.97;43.90;47634.41;5052996;28;20216;-80
2023/04/28 05:27:55;;;;;;;10.13;5.00;;;;;;;-141.97;44.01;47688.22;5034421;28;20169;-80
2023/04/28 05:30:20;;;;;;;9.63;5.50;;;;;;;-141.97;43.41;47511.38;5052144;28;20231;-80
2023/04/28 05:32:46;;;;;;;7.27;5.00;;;;;;;-141.97;43.50;47692.06;5039894;28;20173;-83
2023/04/28 05:35:11;;;;;;;9.77;5.30;;;;;;;-141.97;42.96;47615.19;5042873;28;20196;-82
2023/04/28 05:37:37;;;;;;;9.50;4.47;;;;;;;-141.97;43.01;47442.19;5052032;28;20224;-82
2023/04/28 05:40:03;;;;;;;9.40;5.27;;;;;;;-141.97;43.49;47661.31;5052525;28;20166;-81
2023/04/28 05:42:28;;;;;;;8.90;4.57;;;;;;;-141.97;42.34;47638.25;5051390;28;20162;-82
2023/04/28 05:44:54;;;;;;;8.10;4.23;;;;;;;-141.97;42.59;47480.63;5051032;28;20229;-82
2023/04/28 05:47:20;;;;;;;8.83;4.77;;;;;;;-141.97;42.43;47674.78;5052552;28;20192;-82
2023/04/28 05:49:45;;;;;;;14.10;7.43;;;;;;;-141.97;42.37;47642.09;5053394;28;20235;-82
2023/04/28 05:52:11;;;;;;;12.13;7.07;;;;;;;-141.97;42.12;47717.06;5041162;28;20192;-82
2023/04/28 05:54:37;;;;;;;11.33;6.90;;;;;;;-141.97;42.03;47734.34;5033496;28;20169;-81
2023/04/28 05:57:02;;;;;;;9.50;6.23;;;;;;;-141.97;41.53;47697.84;5016057;28;20176;-82
2023/04/28 05:59:29;;;;;;;18.70;9.47;;;;;;;-141.97;41.82;47465.25;5023606;28;20224;-81
2023/04/28 06:01:55;;;;;;;12.03;7.30;;;;;;;-141.97;41.79;47657.47;5053181;28;20249;-81
2023/04/28 06:04:20;;;;;;;10.30;5.30;;;;;;;-141.97;41.34;47678.63;5032435;28;20224;-80
2023/04/28 06:06:45;;;;;;;8.47;5.40;;;;;;;-141.97;41.42;47663.22;5031527;28;20166;-81
2023/04/28 06:09:11;;;;;;;8.20;5.40;;;;;;;-141.97;40.81;47653.63;5031537;28;20611;-81
2023/04/28 06:11:36;;;;;;;7.47;4.37;;;;;;;-141.97;41.19;47642.09;5031266;28;20162;-81
2023/04/28 06:14:02;;;;;;;9.43;4.40;;;;;;;-141.97;41.18;47524.84;5031338;28;20185;-82
2023/04/28 06:16:28;;;;;;;6.23;3.90;;;;;;;-141.97;40.78;47499.84;5029257;28;20179;-82
2023/04/28 06:18:53;;;;;;;8.20;4.40;;;;;;;-141.97;40.21;47465.25;5051244;28;20165;-82
2023/04/28 06:21:20;;;;;;;8.40;4.80;;;;;;;-141.97;40.26;47695.91;5052091;28;20170;-82
2023/04/28 06:23:45;;;;;;;8.73;4.60;;;;;;;-141.97;39.99;47651.69;5051528;28;20646;-82
2023/04/28 06:26:11;;;;;;;8.07;4.10;;;;;;;-141.97;40.05;47680.53;5035868;28;20264;-82
2023/04/28 06:28:37;;;;;;;5.20;3.80;;;;;;;-141.97;40.07;47517.16;5031799;28;20241;-80
2023/04/28 06:31:02;;;;;;;7.50;4.30;;;;;;;-141.97;39.93;47676.69;5032034;28;20597;-79
2023/04/28 06:33:27;;;;;;;8.80;4.10;;;;;;;-141.97;39.56;47559.44;5003523;28;20612;-79
2023/04/28 06:35:53;;;;;;;12.47;4.23;;;;;;;-141.97;39.33;47657.47;5030205;28;20560;-80
2023/04/28 06:38:18;;;;;;;8.60;4.70;;;;;;;-141.97;39.39;47624.78;5032762;28;20279;-80
2023/04/28 06:40:44;;;;;;;11.67;4.77;;;;;;;-141.97;38.93;47530.59;5046198;28;20190;-80
2023/04/28 06:43:10;;;;;;;8.77;4.13;;;;;;;-141.97;38.72;47594.03;5051351;28;20558;-80
2023/04/28 06:45:36;;;;;;;6.90;4.40;;;;;;;-141.97;38.64;47597.88;5029671;28;20201;-79
2023/04/28 06:48:01;;;;;;;6.93;3.93;;;;;;;-141.97;38.72;47586.34;5011944;28;20647;-79
2023/04/28 06:50:27;;;;;;;8.37;4.57;;;;;;;-141.97;38.56;47705.53;5030353;28;20180;-79
2023/04/28 06:52:52;;;;;;;9.53;4.70;;;;;;;-141.97;37.82;47620.94;5012896;28;20194;-79
2023/04/28 06:55:18;;;;;;;13.50;5.13;;;;;;;-141.97;37.17;47588.28;5017432;28;20176;-79
2023/04/28 06:57:43;;;;;;;8.90;3.93;;;;;;;-141.97;37.17;47599.81;5049935;28;20165;-79
2023/04/28 07:00:10;;;;;;;9.40;4.53;;;;;;;-141.97;36.84;47692.06;5049875;28;20200;-81
2023/04/28 07:02:35;;;;;;;7.37;4.07;;;;;;;-141.97;37.11;47607.50;5050005;28;20603;-81
2023/04/28 07:05:02;;;;;;;8.33;4.70;;;;;;;-141.97;37.24;47547.91;5046685;28;20225;-80
2023/04/28 07:07:28;;;;;;;10.67;4.60;;;;;;;-141.97;36.56;47642.09;5029939;28;20533;-80
2023/04/28 07:09:53;;;;;;;5.67;4.03;;;;;;;-141.97;35.04;47599.81;5029807;28;20216;-80
2023/04/28 07:12:19;;;;;;;8.43;4.13;;;;;;;-141.97;34.65;47592.13;5030469;28;20194;-80
2023/04/28 07:14:45;;;;;;;6.73;4.07;;;;;;;-141.97;35.30;47569.06;5029372;28;20166;-80
2023/04/28 07:17:10;;;;;;;8.20;4.20;;;;;;;-141.97;35.40;47626.72;5029748;28;20197;-80
2023/04/28 07:19:36;;;;;;;6.80;4.00;;;;;;;-141.97;34.89;47619.03;5029588;28;20172;-81
2023/04/28 07:22:01;;;;;;;5.53;4.30;;;;;;;-141.97;34.85;47578.66;5029400;28;20230;-80
2023/04/28 07:24:27;;;;;;;7.03;4.00;;;;;;;-141.97;34.71;47578.66;5029023;28;20194;-81
2023/04/28 07:26:52;;;;;;;7.80;4.07;;;;;;;-141.97;35.17;47574.81;5029720;28;20280;-80
2023/04/28 07:29:18;;;;;;;5.90;4.17;;;;;;;-141.97;34.88;47611.34;5049135;28;20181;-79
2023/04/28 07:31:43;;;;;;;6.13;4.43;;;;;;;-141.97;34.19;47594.03;5030982;28;20307;-81
2023/04/28 07:34:09;;;;;;;5.57;4.03;;;;;;;-141.97;33.72;47597.88;5039757;28;20829;-80
2023/04/28 07:36:35;;;;;;;6.00;3.63;;;;;;;-141.97;33.81;47597.88;5050008;28;20177;-80
2023/04/28 07:39:01;;;;;;;6.97;4.20;;;;;;;-141.97;34.08;47682.47;5053009;28;20575;-81
2023/04/28 07:41:26;;;;;;;5.93;4.00;;;;;;;-141.97;34.01;47603.66;5035149;28;20597;-81
2023/04/28 07:43:52;;;;;;;5.67;4.17;;;;;;;-141.97;33.76;47597.88;5053069;28;20697;-80
2023/04/28 07:46:18;;;;;;;5.87;3.80;;;;;;;-141.97;33.09;47588.28;5035519;28;20291;-81
2023/04/28 07:48:44;;;;;;;7.30;4.57;;;;;;;-141.97;33.83;47607.50;5035267;28;20555;-81
2023/04/28 07:51:09;;;;;;;7.83;4.47;;;;;;;-141.97;33.86;47595.97;5053271;28;20180;-79
2023/04/28 07:53:35;;;;;;;7.37;4.50;;;;;;;-141.97;33.91;47576.75;5052517;28;20185;-79
2023/04/28 07:56:00;;;;;;;5.37;4.00;;;;;;;-141.97;33.40;47530.59;5052784;28;20173;-81
2023/04/28 07:58:26;;;;;;;5.83;3.90;;;;;;;-141.97;33.86;47582.50;5051464;28;20180;-80
2023/04/28 08:00:52;;;;;;;7.30;3.87;;;;;;;-141.97;33.67;47553.69;5052928;28;20261;-80
2023/04/28 08:03:17;;;;;;;9.70;7.07;;;;;;;-141.97;33.32;47576.75;5052700;28;20157;-81
2023/04/28 08:05:43;;;;;;;6.63;4.07;;;;;;;-141.97;33.49;47572.91;5031014;28;20292;-80
2023/04/28 08:08:09;;;;;;;7.03;3.70;;;;;;;-141.97;33.44;47718.97;5033016;28;20169;-80
2023/04/28 08:10:35;;;;;;;6.90;4.13;;;;;;;-141.97;33.13;47582.50;5034983;28;20655;-80
2023/04/28 08:13:00;;;;;;;6.27;3.90;;;;;;;-141.97;32.10;47561.38;5052144;28;20601;-80
2023/04/28 08:15:26;;;;;;;6.37;4.07;;;;;;;-141.97;31.73;47565.22;5052874;28;20176;-80
2023/04/28 08:17:52;;;;;;;6.40;3.83;;;;;;;-141.97;31.93;47638.25;5034294;28;20189;-80
2023/04/28 08:20:18;;;;;;;7.27;4.50;;;;;;;-141.97;33.42;47695.91;5052460;28;20254;-79
2023/04/28 08:22:45;;;;;;;7.67;5.60;;;;;;;-141.97;32.54;47565.22;5052880;28;20670;-80
2023/04/28 08:25:10;;;;;;;8.70;5.63;;;;;;;-141.97;31.76;47549.84;5035013;28;20208;-81
2023/04/28 08:27:38;;;;;;;6.50;3.93;;;;;;;-141.97;31.15;47519.06;5034575;28;20165;-81
2023/04/28 08:30:07;;;;;;;7.80;4.33;;;;;;;-141.97;31.77;47584.44;5036715;28;20535;-79
2023/04/28 08:32:33;;;;;;;7.30;3.90;;;;;;;-141.97;31.37;47509.47;5014781;28;20166;-80
2023/04/28 08:34:59;;;;;;;6.23;4.20;;;;;;;-141.97;31.04;47538.28;5023522;28;20253;-81
2023/04/28 08:37:25;;;;;;;7.40;4.23;;;;;;;-141.97;31.33;47765.09;5014847;28;20233;-80
2023/04/28 08:39:58;;;;;;;6.03;4.40;;;;;;;-141.97;31.49;47726.66;5031671;28;20247;-80
2023/04/28 08:42:25;;;;;;;6.73;4.17;;;;;;;-141.97;32.05;47569.06;5032455;28;20249;-80
2023/04/28 08:44:51;;;;;;;9.33;3.90;;;;;;;-141.97;32.25;47549.84;5032568;28;20198;-81
2023/04/28 08:47:20;;;;;;;7.97;4.57;;;;;;;-141.97;32.48;47595.97;5031981;28;20200;-81
2023/04/28 08:49:47;;;;;;;12.83;4.40;;;;;;;-141.97;32.42;47584.44;5030192;28;20641;-81
2023/04/28 08:52:16;;;;;;;9.63;4.67;;;;;;;-141.97;33.07;47496.00;5032688;28;20227;-81
2023/04/28 08:54:43;;;;;;;6.87;4.60;;;;;;;-141.97;34.04;47559.44;5032287;28;20645;-79
2023/04/28 08:57:09;;;;;;;7.73;4.47;;;;;;;-141.97;33.79;47517.16;5032741;28;20166;-80
2023/04/28 08:59:41;;;;;;;7.20;4.90;;;;;;;-141.97;33.22;47461.41;5033767;28;20178;-80
2023/04/28 09:02:08;;;;;;;7.27;4.63;;;;;;;-141.97;32.59;47588.28;5042378;28;20170;-78
2023/04/28 09:04:33;;;;;;;8.83;5.00;;;;;;;-141.97;32.45;47572.91;5050985;28;20201;-79
2023/04/28 09:06:59;;;;;;;7.33;4.60;;;;;;;-141.97;31.76;47601.72;5057924;28;20166;-80
2023/04/28 09:09:28;;;;;;;6.37;4.50;;;;;;;-141.97;31.84;47582.50;5045886;28;20259;-80
2023/04/28 09:12:01;;;;;;;7.17;4.40;;;;;;;-141.97;31.53;47603.66;5017091;28;20188;-78
2023/04/28 09:14:35;;;;;;;6.27;4.23;;;;;;;-141.97;31.29;47592.13;5014653;28;20170;-80
2023/04/28 09:17:02;;;;;;;6.03;4.13;;;;;;;-141.97;31.49;47551.75;5031821;28;20176;-80
2023/04/28 09:19:37;;;;;;;5.47;4.10;;;;;;;-141.97;31.04;47565.22;5032684;28;20166;-80
2023/04/28 09:22:04;;;;;;;5.47;4.60;;;;;;;-141.97;31.78;47622.88;5032523;28;20181;-80
2023/04/28 09:24:33;;;;;;;5.70;4.40;;;;;;;-141.97;31.24;47574.81;5032530;28;20202;-79
2023/04/28 09:27:04;;;;;;;12.03;4.90;;;;;;;-141.97;31.92;47563.28;5032230;28;20166;-80
2023/04/28 09:29:30;;;;;;;7.83;4.30;;;;;;;-141.97;31.21;47507.53;5031575;28;20285;-79
2023/04/28 09:32:19;;;;;;;7.33;4.40;;;;;;;-141.97;31.47;47559.44;5032117;28;20166;-80
2023/04/28 09:34:49;;;;;;;9.00;4.80;;;;;;;-141.97;32.79;47569.06;5022378;28;20273;-78
2023/04/28 09:37:17;;;;;;;5.80;3.90;;;;;;;-141.97;31.27;47734.34;5032928;28;20221;-79
2023/04/28 09:39:44;;;;;;;6.87;4.57;;;;;;;-141.97;30.98;47553.69;5033407;28;20181;-79
2023/04/28 09:42:10;;;;;;;5.20;4.10;;;;;;;-141.97;31.14;47546.00;5051517;28;20172;-80
2023/04/28 09:44:36;;;;;;;5.33;4.10;;;;;;;-141.97;30.57;47569.06;5051162;28;20189;-78
2023/04/28 09:47:21;;;;;;;6.53;4.40;;;;;;;-141.97;30.78;47569.06;5032900;28;20323;-78
2023/04/28 09:49:57;;;;;;;5.83;3.90;;;;;;;-141.97;31.13;47522.91;5033737;28;20188;-79
2023/04/28 09:52:23;;;;;;;7.37;4.20;;;;;;;-141.97;31.50;47588.28;5051141;28;20165;-80
2023/04/28 09:54:50;;;;;;;7.30;4.00;;;;;;;-141.97;30.73;47592.13;5051112;28;20184;-80
2023/04/28 09:57:20;;;;;;;6.40;3.90;;;;;;;-141.97;30.37;47605.56;5051655;28;20222;-79
2023/04/28 09:59:50;;;;;;;5.87;3.97;;;;;;;-141.97;30.22;47524.84;5050551;28;20165;-79
2023/04/28 10:02:18;;;;;;;6.00;4.00;;;;;;;-141.97;29.93;47609.41;5033259;28;20525;-79
2023/04/28 10:04:44;;;;;;;6.97;3.80;;;;;;;-141.97;29.71;47695.91;5051703;28;20189;-78
2023/04/28 10:07:15;;;;;;;6.53;4.10;;;;;;;-141.97;29.96;47547.91;5050771;28;20557;-79
2023/04/28 10:09:43;;;;;;;5.20;4.10;;;;;;;-141.97;29.99;47530.59;5050341;28;20606;-79
2023/04/28 10:12:12;;;;;;;6.03;3.90;;;;;;;-141.97;30.71;47546.00;5050755;28;20169;-79
2023/04/28 10:14:39;;;;;;;6.03;4.00;;;;;;;-141.97;30.40;47534.44;5050199;28;20162;-79
2023/04/28 10:17:06;;;;;;;8.77;4.70;;;;;;;-141.97;30.71;47526.75;5050736;28;20177;-79
2023/04/28 10:19:32;;;;;;;6.40;4.37;;;;;;;-141.97;30.64;47605.56;5031989;28;20280;-79
2023/04/28 10:22:27;;;;;;;6.10;4.13;;;;;;;-141.97;30.79;47684.38;5035874;28;20237;-79
2023/04/28 10:25:11;;;;;;;7.30;4.70;;;;;;;-141.97;31.08;47711.28;5040862;28;20327;-79
2023/04/28 10:27:42;;;;;;;15.40;9.67;;;;;;;-141.97;30.36;47561.38;5050737;28;20157;-80
2023/04/28 10:30:16;;;;;;;7.23;4.97;;;;;;;-141.97;29.95;47559.44;5013473;28;20194;-80
2023/04/28 10:32:44;;;;;;;5.93;4.40;;;;;;;-141.97;30.28;47595.97;5031392;28;20172;-80
2023/04/28 10:35:29;;;;;;;8.23;4.50;;;;;;;-141.97;30.15;47588.28;5023734;28;20236;-78
2023/04/28 10:38:11;;;;;;;8.10;4.00;;;;;;;-141.97;29.72;47609.41;5033974;28;20245;-79
2023/04/28 10:40:50;;;;;;;5.77;3.90;;;;;;;-141.97;29.82;47736.28;5013197;28;20556;-80
2023/04/28 10:43:27;;;;;;;5.80;4.30;;;;;;;-141.97;30.32;47553.69;5033908;28;20208;-81
2023/04/28 10:45:53;;;;;;;5.30;4.10;;;;;;;-141.97;30.34;47570.97;5044344;28;20200;-79
2023/04/28 10:48:20;;;;;;;7.73;4.40;;;;;;;-141.97;30.18;47576.75;5035303;28;20514;-79
2023/04/28 10:51:11;;;;;;;6.60;4.20;;;;;;;-141.97;30.48;47559.44;5030628;28;20216;-79
2023/04/28 10:53:43;;;;;;;8.90;4.70;;;;;;;-141.97;30.35;47570.97;5012678;28;20302;-81
2023/04/28 10:56:11;;;;;;;5.00;3.97;;;;;;;-141.97;30.00;47499.84;5016980;28;20204;-79
2023/04/28 10:58:41;;;;;;;6.43;4.57;;;;;;;-141.97;30.32;47730.50;5049040;28;20238;-78
2023/04/28 11:01:24;;;;;;;6.57;4.33;;;;;;;-141.97;30.78;47553.69;5050092;28;20157;-79
2023/04/28 11:04:15;;;;;;;6.80;4.10;;;;;;;-141.97;31.04;47524.84;5049729;28;20754;-78
2023/04/28 11:06:42;;;;;;;6.13;4.37;;;;;;;-141.97;30.39;47561.38;5049508;28;20649;-78
2023/04/28 11:09:22;;;;;;;5.57;3.90;;;;;;;-141.97;29.94;47586.34;5049754;28;20173;-78
2023/04/28 11:11:54;;;;;;;5.87;3.97;;;;;;;-141.97;29.84;47532.53;5033728;28;20629;-79
2023/04/28 11:14:20;;;;;;;6.47;4.00;;;;;;;-141.97;29.99;47569.06;5054555;28;20161;-79